Wilton, New York
Current Conditions -  °F | °C
As of 8:53 PM on Sunday 21 Dec 2014 (Local Time) from KGFL Reporting Station
Overcast Overcast  
Wind Chill: -2°   Ceiling: 3300
Heat Index: -2°   Visibility: 9mi
Dew Point: -6°   Wind: 3mph
Humidity: 78%   Direction: 60°ENE
Pressure: 30.37"   Gusts: NA
Location:  43.1979°N, 73.6839°W
Report Text: KGFL 220153Z AUTO 06003KT 9SM OVC033 M02/M06 A3037 RMK AO2 SLP295 T10221056
Loading
Personal Weather Stations






























Interactive Weather Map New forecast layout! Learn more

10-Day Weather Forecast

Advertisements
Track Severe Weather on mobile